WEATHER DATA

YESTERDAY
Time Temp. Dewp. Hum. Wind dir Wind speed Wind gust Bar. 1h Prec. 24h Prec.
00:17 19.5 15.4 77 305 0.8 1.4 1007.9 0.0000 0.0000
00:27 19.3 15.4 78 309 0.8 1.4 1007.7 0.0000 0.0000
00:37 19.1 15.2 78 316 1.1 1.7 1007.6 0.0000 0.0000
00:48 19 15.3 79 246 0.6 1.4 1007.6 0.0000 0.0000
00:57 18.9 15.4 80 17 0.8 1.1 1007.5 0.0000 0.0000
01:13 18.9 15.4 80 348 0.8 1.4 1007.5 0.0000 0.0000
01:24 19 15.5 80 4 0.8 1.4 1007.2 0.0000 0.0000
01:34 18.9 15.4 80 346 0.8 1.4 1007.1 0.0000 0.0000
01:43 18.7 15.2 80 306 0.6 1.4 1007 0.0000 0.0000
01:54 18.6 15.1 80 332 0.8 1.4 1007 0.0000 0.0000
02:04 18.4 15.1 81 238 0.6 1.4 1006.8 0.0000 0.0000
02:14 18.2 14.9 81 253 0.6 1.4 1006.8 0.0000 0.0000
02:24 18 14.9 82 315 0.8 1.4 1006.6 0.0000 0.0000
02:34 17.8 14.9 83 300 1.4 1.9 1006.5 0.0000 0.0000
02:44 17.7 14.8 83 330 1.1 1.7 1006.4 0.0000 0.0000
02:54 17.7 14.8 83 343 1.1 1.7 1006.3 0.0000 0.0000
03:04 17.6 14.9 84 312 1.4 1.9 1006.4 0.0000 0.0000
03:15 17.6 14.9 84 327 1.1 1.7 1006.3 0.0000 0.0000
03:24 17.6 15.1 85 358 1.1 1.7 1006.1 0.0000 0.0000
03:34 17.6 15.1 85 330 1.1 1.7 1006.1 0.0000 0.0000
03:45 17.6 15.2 86 356 0.8 1.4 1006 0.0000 0.0000
03:55 17.7 15.3 86 313 1.4 1.9 1005.9 0.0000 0.0000
04:05 17.7 15.5 87 342 1.1 1.4 1005.9 0.0000 0.0000
04:15 17.7 15.5 87 349 1.1 1.7 1005.8 0.0000 0.0000
04:25 17.7 15.3 86 328 1.1 1.7 1005.8 0.0000 0.0000
04:35 17.6 15.2 86 307 1.1 1.9 1005.8 0.0000 0.0000
04:45 17.6 15.4 87 342 1.1 1.4 1005.7 0.0000 0.0000
04:56 17.7 15.7 88 350 0.8 1.7 1005.8 0.0000 0.0000
05:06 18.2 16.5 90 357 1.1 1.7 1005.8 0.0000 0.0000
05:15 18.9 17 89 331 1.1 2.2 1005.8 0.0000 0.0000
05:22 19.6 17.4 87 335 1.1 1.7 1005.8 0.0000 0.0000
05:32 20.9 18.1 84 325 1.4 1.9 1005.9 0.0000 0.0000
05:42 22 18.4 80 342 1.4 1.9 1005.9 0.0000 0.0000
05:52 23.3 18.8 76 334 1.4 1.9 1005.9 0.0000 0.0000
06:02 24.4 19 72 339 1.4 2.2 1005.9 0.0000 0.0000
06:12 25.4 19.5 70 343 1.4 2.2 1006 0.0000 0.0000
06:23 26.6 20 67 348 1.7 2.8 1006.1 0.0000 0.0000
06:32 27.2 19.5 63 0 1.4 2.8 1006 0.0000 0.0000
06:42 27.5 20.1 64 358 1.4 3.1 1006 0.0000 0.0000
06:53 28.4 19.9 60 1 1.7 2.8 1006 0.0000 0.0000
06:59 28.8 20 59 351 1.4 2.5 1006.1 0.0000 0.0000
07:09 29.3 20.5 59 0 1.7 2.8 1006.2 0.0000 0.0000
07:19 29.2 20.6 60 9 1.7 2.5 1006.2 0.0000 0.0000
07:29 28.6 19.8 59 19 1.4 2.5 1006.3 0.0000 0.0000
07:40 26.9 19.3 63 30 1.4 3.1 1006.3 0.0000 0.0000
07:49 26.3 19.4 66 5 1.4 3.1 1006.2 0.0000 0.0000
07:59 25.9 19.3 67 29 1.7 2.8 1006.2 0.0000 0.0000
08:10 25.6 19 67 43 1.9 3.9 1006.2 0.0000 0.0000
08:20 25.4 19.1 68 60 1.4 2.8 1006.3 0.0000 0.0000
08:30 25.4 19.1 68 48 1.7 3.9 1006.2 0.0000 0.0000
08:39 25.5 18.9 67 90 1.4 2.5 1006.3 0.0000 0.0000
08:50 25.6 19 67 40 1.9 3.9 1006.2 0.0000 0.0000
09:00 25.9 19.5 68 28 1.9 3.6 1006.2 0.0000 0.0000
09:10 26.2 19.6 67 55 1.4 3.1 1006.1 0.0000 0.0000
09:20 26.4 19.5 66 68 1.4 2.8 1006.2 0.0000 0.0000
09:30 26.7 20.1 67 155 1.4 2.5 1006.2 0.0000 0.0000
09:40 26.9 19.8 65 141 1.1 2.2 1006.2 0.0000 0.0000
09:50 27.3 19.9 64 170 0.6 1.4 1006.2 0.0000 0.0000
10:01 27.5 20.1 64 135 1.1 2.2 1006.2 0.0000 0.0000
10:11 27.9 19.9 62 146 0.8 1.9 1006.2 0.0000 0.0000
10:21 28 20.3 63 90 0.8 2.5 1006.2 0.0000 0.0000
10:31 28.3 20.1 61 114 1.4 2.8 1006.1 0.0000 0.0000
10:41 28.5 20 60 125 0.6 2.2 1006.1 0.0000 0.0000
10:51 28.8 20.3 60 174 1.1 2.8 1006 0.0000 0.0000
11:01 29.1 20.3 59 135 1.1 2.8 1006.1 0.0000 0.0000
11:12 29 20.2 59 115 0.8 2.2 1006 0.0000 0.0000
11:21 29.2 20.4 59 158 1.1 2.2 1006 0.0000 0.0000
11:31 29.4 20.6 59 225 1.1 3.1 1005.9 0.0000 0.0000
11:41 29.8 21.2 60 173 1.1 2.2 1005.9 0.0000 0.0000
11:52 30 21.1 59 135 1.1 2.2 1005.8 0.0000 0.0000
12:02 30.3 20.5 56 181 1.1 2.5 1005.7 0.0000 0.0000
12:11 30.4 20.9 57 161 0.8 1.7 1005.6 0.0000 0.0000
12:22 30.9 21.4 57 220 1.7 3.3 1005.6 0.0000 0.0000
12:32 31.1 20.4 53 228 1.1 1.9 1005.5 0.0000 0.0000
12:42 31.2 20.2 52 120 0.8 2.2 1005.4 0.0000 0.0000
12:52 31.6 20.9 53 177 0.8 2.5 1005.3 0.0000 0.0000
13:02 31.9 20.8 52 300 0.8 2.2 1005.2 0.0000 0.0000
13:12 31.6 19.9 50 100 1.1 3.3 1005.1 0.0000 0.0000
13:22 31.8 19.8 49 6 1.1 2.8 1005.1 0.0000 0.0000
13:33 31.5 19.8 50 173 1.1 2.8 1005 0.0000 0.0000
13:43 31.7 19.7 49 270 0.8 1.7 1004.9 0.0000 0.0000
13:52 31.8 20.1 50 168 0.8 2.8 1004.8 0.0000 0.0000
14:02 31.7 19 47 68 1.4 3.6 1004.7 0.0000 0.0000
14:13 31.6 18.9 47 164 0.8 2.5 1004.6 0.0000 0.0000
14:23 31.7 18.7 46 120 1.1 2.8 1004.5 0.0000 0.0000
14:33 32.2 18.8 45 112 1.1 2.2 1004.5 0.0000 0.0000
14:43 32.6 19.5 46 234 1.4 2.8 1004.4 0.0000 0.0000
14:53 33 20.2 47 135 1.4 2.5 1004.4 0.0000 0.0000
15:03 33.2 18.9 43 135 1.1 2.5 1004.3 0.0000 0.0000
15:13 33.5 20.3 46 206 1.4 3.1 1004.2 0.0000 0.0000
15:24 34 20.4 45 187 1.4 3.3 1004.2 0.0000 0.0000
15:34 33.6 18.9 42 156 1.7 3.1 1004 0.0000 0.0000
15:43 33.8 20.2 45 199 0.8 1.9 1003.8 0.0000 0.0000
15:53 33.7 20.5 46 199 1.1 3.1 1004 0.0000 0.0000
16:04 34 20.4 45 145 0.8 2.5 1004 0.0000 0.0000
16:14 34.3 20.7 45 137 1.4 4.4 1004.2 0.0000 0.0000
16:23 34.2 19.5 42 107 1.1 2.5 1004.2 0.0000 0.0000
16:34 33.7 19.8 44 139 0.8 1.7 1004.2 0.0000 0.0000
16:44 33.9 20.3 45 203 1.9 3.9 1004.2 0.0000 0.0000
16:54 33.7 19.8 44 154 0.8 1.9 1004.2 0.0000 0.0000
17:04 33.2 18.6 42 90 1.1 3.6 1004.3 0.0000 0.0000
17:14 33.4 19.8 45 137 0.8 1.9 1004.2 0.0000 0.0000
17:24 33.4 19.8 45 135 0.8 2.2 1004.3 0.0000 0.0000
17:34 33.1 19.2 44 90 1.4 3.3 1004.3 0.0000 0.0000
17:45 32.9 19 44 142 1.1 2.2 1004.4 0.0000 0.0000
17:55 32.5 18.7 44 114 1.1 2.2 1004.4 0.0000 0.0000
18:04 32.3 19.2 46 135 1.1 1.9 1004.3 0.0000 0.0000
18:14 31.9 18.5 45 327 1.4 2.2 1004.4 0.0000 0.0000
18:25 31.7 18.7 46 12 1.4 2.2 1004.4 0.0000 0.0000
18:35 31.5 19.2 48 313 1.4 2.5 1004.6 0.0000 0.0000
18:45 31.1 19.1 49 25 1.1 2.5 1004.7 0.0000 0.0000
18:55 30.8 19.2 50 340 1.1 1.9 1004.6 0.0000 0.0000
19:05 30.4 19.4 52 13 1.1 1.7 1004.6 0.0000 0.0000
19:15 30.3 19.3 52 301 1.1 2.2 1004.6 0.0000 0.0000
19:25 30.2 20.2 55 283 1.1 2.5 1004.9 0.0000 0.0000
19:31 30.1 20.1 55 296 1.4 2.5 1005.1 0.0000 0.0000
19:42 29.4 20 57 242 1.9 4.2 1005.5 0.0000 0.0000
19:51 28.8 19.7 58 266 2.5 3.9 1005.6 0.0000 0.0000
20:01 28.4 19.3 58 257 1.4 3.1 1005.7 0.0000 0.0000
20:12 28 19.2 59 225 1.9 3.6 1006.1 0.0000 0.0000
20:22 27.4 18.7 59 230 2.2 5.6 1006 0.0000 0.0000
20:32 26.9 18.5 60 251 1.4 3.1 1005.7 0.0000 0.0000
20:41 26.6 18.5 61 225 0.8 1.9 1005.7 0.0000 0.0000
20:52 26.3 18.4 62 314 1.9 2.8 1005.4 0.0000 0.0000
21:02 26 18.4 63 270 0.8 1.4 1005.5 0.0000 0.0000
21:12 25.7 18.4 64 247 0.8 1.4 1005.5 0.0000 0.0000
21:22 25.4 18.3 65 295 0.8 1.4 1005.6 0.0000 0.0000
21:32 25 18.2 66 270 0.8 1.4 1005.6 0.0000 0.0000
21:42 24.5 18.2 68 293 1.1 1.9 1005.7 0.0000 0.0000
21:52 24 18 69 230 1.1 2.5 1005.7 0.0000 0.0000
22:03 23.8 17.8 69 218 0.8 1.4 1005.7 0.0000 0.0000
22:13 23.5 17.7 70 312 1.4 2.5 1005.9 0.0000 0.0000
22:22 23.3 17.5 70 222 1.4 2.8 1005.7 0.0000 0.0000
22:33 23.1 17.6 71 270 0.8 1.7 1005.6 0.0000 0.0000
22:43 23 17.5 71 290 0.8 1.4 1005.4 0.0000 0.0000
22:53 22.8 17.5 72 320 1.7 1.9 1005.5 0.0000 0.0000
23:03 22.6 17.5 73 270 1.1 1.7 1005.6 0.0000 0.0000
23:13 22.4 17.5 74 332 0.8 1.4 1005.5 0.0000 0.0000
23:23 22.2 17.3 74 256 0.8 1.7 1005.5 0.0000 0.0000
23:33 21.9 17.3 75 328 0.6 1.7 1005.4 0.0000 0.0000
23:43 21.7 17.5 77 321 0.8 1.7 1005.2 0.0000 0.0000
23:54 21.4 17.2 77 247 0.8 1.7 1005.1 0.0000 0.0000

DAY STATISTIC

2021-06-21
TEMPERATURE
AVERAGE
26.4
HIGH
34.3
16:14
LOW
17.6
03:04
PRESSURE
AVERAGE
1005.6
HIGH
1007.9
00:17
LOW
1003.8
15:43
DEWPOINT
AVERAGE
18.5
HIGH
21.4
12:22
LOW
14.8
02:44
HUMIDITY
AVERAGE
64
HIGH
90
05:06
LOW
42
15:34
WIND SPEED
AVERAGE
1.2
HIGH
2.5
19:51
WIND GUST
AVERAGE
2.3
HIGH
5.6
20:22
WIND DIRECTION
PREVAILING
NW
21.8%
N
19.7
NE
6.3
E
6.3
SE
16.2
S
9.9
SW
11.3
W
8.5
NW
21.8
PRECIPITATION
RAIN HOUR
0.0
RAIN DAY
0.0
TEMPERATURE (°C)
LOW
17.6
HIGH
34.3
AVERAGE
26.4
PRESSURE (hpa)
LOW
1003.8
HIGH
1007.9
AVERAGE
1005.6
DEVICE